sensor_id;sensor_type;location;lat;lon;timestamp;pressure;altitude;pressure_sealevel;temperature;humidity
16544;BME280;8384;47.996;7.786;2023-01-31T00:01:09;99917.81;;;0.42;98.85
16544;BME280;8384;47.996;7.786;2023-01-31T00:03:36;99937.31;;;0.44;98.49
16544;BME280;8384;47.996;7.786;2023-01-31T00:06:25;99919.84;;;0.32;99.21
16544;BME280;8384;47.996;7.786;2023-01-31T00:08:52;99939.34;;;0.42;99.53
16544;BME280;8384;47.996;7.786;2023-01-31T00:11:19;99936.31;;;0.45;99.15
16544;BME280;8384;47.996;7.786;2023-01-31T00:13:45;99935.13;;;0.23;100.00
16544;BME280;8384;47.996;7.786;2023-01-31T00:16:12;99933.06;;;0.17;100.00
16544;BME280;8384;47.996;7.786;2023-01-31T00:18:38;99913.75;;;0.21;100.00
16544;BME280;8384;47.996;7.786;2023-01-31T00:21:11;99914.44;;;0.23;100.00
16544;BME280;8384;47.996;7.786;2023-01-31T00:23:37;99935.91;;;0.15;100.00
16544;BME280;8384;47.996;7.786;2023-01-31T00:26:14;99925.47;;;0.04;100.00
16544;BME280;8384;47.996;7.786;2023-01-31T00:28:41;99921.94;;;0.03;100.00
16544;BME280;8384;47.996;7.786;2023-01-31T00:31:08;99920.97;;;0.12;100.00
16544;BME280;8384;47.996;7.786;2023-01-31T00:33:35;99927.13;;;-0.04;100.00
16544;BME280;8384;47.996;7.786;2023-01-31T00:36:09;99913.78;;;-0.22;100.00
16544;BME280;8384;47.996;7.786;2023-01-31T00:38:34;99921.09;;;0.03;100.00
16544;BME280;8384;47.996;7.786;2023-01-31T00:41:00;99925.97;;;0.07;100.00
16544;BME280;8384;47.996;7.786;2023-01-31T00:43:26;99907.00;;;0.17;100.00
16544;BME280;8384;47.996;7.786;2023-01-31T00:45:51;99907.06;;;0.42;99.36
16544;BME280;8384;47.996;7.786;2023-01-31T00:48:16;99899.00;;;0.34;96.61
16544;BME280;8384;47.996;7.786;2023-01-31T00:50:42;99889.56;;;0.21;97.37
16544;BME280;8384;47.996;7.786;2023-01-31T00:53:08;99909.09;;;-0.20;98.23
16544;BME280;8384;47.996;7.786;2023-01-31T00:55:33;99915.13;;;-0.26;100.00
16544;BME280;8384;47.996;7.786;2023-01-31T00:57:59;99919.06;;;-0.47;100.00
16544;BME280;8384;47.996;7.786;2023-01-31T01:00:24;99882.50;;;-0.74;100.00
16544;BME280;8384;47.996;7.786;2023-01-31T01:02:49;99910.00;;;-0.80;100.00
16544;BME280;8384;47.996;7.786;2023-01-31T01:05:14;99880.88;;;-0.93;100.00
16544;BME280;8384;47.996;7.786;2023-01-31T01:07:40;99914.19;;;-0.78;100.00
16544;BME280;8384;47.996;7.786;2023-01-31T01:10:06;99896.81;;;-0.92;100.00
16544;BME280;8384;47.996;7.786;2023-01-31T01:12:31;99912.88;;;-0.73;100.00
16544;BME280;8384;47.996;7.786;2023-01-31T01:14:57;99913.63;;;-0.89;100.00
16544;BME280;8384;47.996;7.786;2023-01-31T01:17:22;99873.03;;;-1.39;100.00
16544;BME280;8384;47.996;7.786;2023-01-31T01:19:47;99896.66;;;-1.16;100.00
16544;BME280;8384;47.996;7.786;2023-01-31T01:22:13;99898.06;;;-1.30;100.00
16544;BME280;8384;47.996;7.786;2023-01-31T01:24:44;99879.97;;;-1.28;100.00
16544;BME280;8384;47.996;7.786;2023-01-31T01:27:10;99907.72;;;-1.19;100.00
16544;BME280;8384;47.996;7.786;2023-01-31T01:29:36;99896.53;;;-1.15;100.00
16544;BME280;8384;47.996;7.786;2023-01-31T01:32:02;99916.00;;;-1.13;100.00
16544;BME280;8384;47.996;7.786;2023-01-31T01:34:27;99895.31;;;-1.21;100.00
16544;BME280;8384;47.996;7.786;2023-01-31T01:36:52;99886.41;;;-1.21;100.00
16544;BME280;8384;47.996;7.786;2023-01-31T01:39:17;99911.75;;;-1.15;100.00
16544;BME280;8384;47.996;7.786;2023-01-31T01:41:44;99908.56;;;-1.19;100.00
16544;BME280;8384;47.996;7.786;2023-01-31T01:49:48;99888.00;;;-1.55;100.00
16544;BME280;8384;47.996;7.786;2023-01-31T01:52:15;99879.94;;;-1.37;100.00
16544;BME280;8384;47.996;7.786;2023-01-31T01:54:46;99872.47;;;-1.25;98.99
16544;BME280;8384;47.996;7.786;2023-01-31T01:57:16;99857.41;;;-1.44;99.50
16544;BME280;8384;47.996;7.786;2023-01-31T01:59:45;99909.66;;;-1.30;99.46
16544;BME280;8384;47.996;7.786;2023-01-31T02:02:13;99891.19;;;-1.51;100.00
16544;BME280;8384;47.996;7.786;2023-01-31T02:04:39;99896.03;;;-1.55;100.00
16544;BME280;8384;47.996;7.786;2023-01-31T02:07:06;99888.56;;;-1.25;100.00
16544;BME280;8384;47.996;7.786;2023-01-31T02:09:59;99920.34;;;-1.12;99.62
16544;BME280;8384;47.996;7.786;2023-01-31T02:12:26;99909.16;;;-1.25;100.00
16544;BME280;8384;47.996;7.786;2023-01-31T02:14:52;99913.41;;;-1.59;100.00
16544;BME280;8384;47.996;7.786;2023-01-31T02:17:18;99902.78;;;-1.69;100.00
16544;BME280;8384;47.996;7.786;2023-01-31T02:33:53;99897.25;;;-2.03;100.00
16544;BME280;8384;47.996;7.786;2023-01-31T02:36:48;99898.16;;;-1.94;100.00
16544;BME280;8384;47.996;7.786;2023-01-31T02:44:54;99871.03;;;-2.28;100.00
16544;BME280;8384;47.996;7.786;2023-01-31T02:47:40;99895.84;;;-2.07;100.00
16544;BME280;8384;47.996;7.786;2023-01-31T02:52:42;99915.00;;;-2.02;100.00
16544;BME280;8384;47.996;7.786;2023-01-31T02:55:43;99917.59;;;-2.11;100.00
16544;BME280;8384;47.996;7.786;2023-01-31T02:58:32;99897.97;;;-2.29;100.00
16544;BME280;8384;47.996;7.786;2023-01-31T03:01:01;99925.75;;;-1.66;100.00
16544;BME280;8384;47.996;7.786;2023-01-31T03:03:31;99898.81;;;-1.46;100.00
16544;BME280;8384;47.996;7.786;2023-01-31T03:09:08;99907.56;;;-2.08;100.00
16544;BME280;8384;47.996;7.786;2023-01-31T03:12:07;99933.00;;;-2.50;100.00
16544;BME280;8384;47.996;7.786;2023-01-31T03:14:54;99928.63;;;-2.51;100.00
16544;BME280;8384;47.996;7.786;2023-01-31T03:20:26;99935.38;;;-2.47;100.00
16544;BME280;8384;47.996;7.786;2023-01-31T03:22:58;99936.97;;;-2.54;100.00
16544;BME280;8384;47.996;7.786;2023-01-31T03:25:27;99909.19;;;-2.53;100.00
16544;BME280;8384;47.996;7.786;2023-01-31T03:27:57;99930.22;;;-2.31;100.00
16544;BME280;8384;47.996;7.786;2023-01-31T03:30:33;99912.19;;;-2.29;100.00
16544;BME280;8384;47.996;7.786;2023-01-31T03:33:07;99932.72;;;-2.19;100.00
16544;BME280;8384;47.996;7.786;2023-01-31T03:35:38;99888.63;;;-2.53;100.00
16544;BME280;8384;47.996;7.786;2023-01-31T03:38:10;99939.41;;;-2.33;100.00
16544;BME280;8384;47.996;7.786;2023-01-31T03:43:36;99912.81;;;-2.45;100.00
16544;BME280;8384;47.996;7.786;2023-01-31T03:46:12;99935.69;;;-2.22;100.00
16544;BME280;8384;47.996;7.786;2023-01-31T03:48:42;99934.00;;;-2.23;100.00
16544;BME280;8384;47.996;7.786;2023-01-31T03:51:15;99931.78;;;-2.28;100.00
16544;BME280;8384;47.996;7.786;2023-01-31T03:53:47;99927.66;;;-2.22;100.00
16544;BME280;8384;47.996;7.786;2023-01-31T03:56:53;99927.56;;;-2.31;100.00
16544;BME280;8384;47.996;7.786;2023-01-31T03:59:27;99916.31;;;-2.34;100.00
16544;BME280;8384;47.996;7.786;2023-01-31T04:01:55;99907.69;;;-2.28;100.00
16544;BME280;8384;47.996;7.786;2023-01-31T04:04:33;99917.78;;;-2.22;100.00
16544;BME280;8384;47.996;7.786;2023-01-31T04:07:01;99918.41;;;-2.10;100.00
16544;BME280;8384;47.996;7.786;2023-01-31T04:09:27;99910.13;;;-1.89;100.00
16544;BME280;8384;47.996;7.786;2023-01-31T04:11:53;99864.91;;;-2.20;100.00
16544;BME280;8384;47.996;7.786;2023-01-31T04:14:18;99889.88;;;-2.19;100.00
16544;BME280;8384;47.996;7.786;2023-01-31T04:16:44;99898.66;;;-2.27;100.00
16544;BME280;8384;47.996;7.786;2023-01-31T04:19:09;99894.38;;;-2.48;100.00
16544;BME280;8384;47.996;7.786;2023-01-31T04:21:34;99913.97;;;-2.47;100.00
16544;BME280;8384;47.996;7.786;2023-01-31T04:23:59;99899.47;;;-2.54;100.00
16544;BME280;8384;47.996;7.786;2023-01-31T04:26:25;99910.03;;;-2.91;100.00
16544;BME280;8384;47.996;7.786;2023-01-31T04:28:50;99931.59;;;-2.92;100.00
16544;BME280;8384;47.996;7.786;2023-01-31T04:31:16;99936.16;;;-2.75;100.00
16544;BME280;8384;47.996;7.786;2023-01-31T04:33:41;99940.41;;;-2.72;100.00
16544;BME280;8384;47.996;7.786;2023-01-31T04:36:07;99921.44;;;-2.79;100.00
16544;BME280;8384;47.996;7.786;2023-01-31T04:38:32;99932.50;;;-2.74;100.00
16544;BME280;8384;47.996;7.786;2023-01-31T04:40:58;99924.25;;;-2.90;100.00
16544;BME280;8384;47.996;7.786;2023-01-31T04:43:23;99872.34;;;-3.07;100.00
16544;BME280;8384;47.996;7.786;2023-01-31T04:45:48;99926.28;;;-3.12;100.00
16544;BME280;8384;47.996;7.786;2023-01-31T04:48:14;99928.94;;;-3.02;100.00
16544;BME280;8384;47.996;7.786;2023-01-31T04:50:39;99935.94;;;-2.91;100.00
16544;BME280;8384;47.996;7.786;2023-01-31T04:53:04;99926.38;;;-3.04;100.00
16544;BME280;8384;47.996;7.786;2023-01-31T04:55:30;99936.09;;;-2.93;100.00
16544;BME280;8384;47.996;7.786;2023-01-31T04:57:55;99946.50;;;-2.90;100.00
16544;BME280;8384;47.996;7.786;2023-01-31T05:00:21;99935.13;;;-3.02;100.00
16544;BME280;8384;47.996;7.786;2023-01-31T05:02:46;99933.00;;;-2.98;100.00
16544;BME280;8384;47.996;7.786;2023-01-31T05:05:12;99918.34;;;-3.04;100.00
16544;BME280;8384;47.996;7.786;2023-01-31T05:07:38;99948.88;;;-2.87;100.00
16544;BME280;8384;47.996;7.786;2023-01-31T05:10:04;99951.44;;;-2.85;100.00
16544;BME280;8384;47.996;7.786;2023-01-31T05:12:30;99922.34;;;-3.08;100.00
16544;BME280;8384;47.996;7.786;2023-01-31T05:14:56;99944.97;;;-2.92;100.00
16544;BME280;8384;47.996;7.786;2023-01-31T05:17:21;99949.31;;;-2.91;100.00
16544;BME280;8384;47.996;7.786;2023-01-31T05:19:54;99943.28;;;-2.93;100.00
16544;BME280;8384;47.996;7.786;2023-01-31T05:22:19;99946.66;;;-2.91;100.00
16544;BME280;8384;47.996;7.786;2023-01-31T05:24:46;99952.41;;;-2.86;100.00
16544;BME280;8384;47.996;7.786;2023-01-31T05:27:12;99941.28;;;-2.91;100.00
16544;BME280;8384;47.996;7.786;2023-01-31T05:29:37;99904.03;;;-3.12;100.00
16544;BME280;8384;47.996;7.786;2023-01-31T05:32:03;99916.69;;;-3.05;100.00
16544;BME280;8384;47.996;7.786;2023-01-31T05:34:28;99933.84;;;-2.97;100.00
16544;BME280;8384;47.996;7.786;2023-01-31T05:36:56;99897.44;;;-3.18;100.00
16544;BME280;8384;47.996;7.786;2023-01-31T05:39:22;99923.16;;;-3.07;100.00
16544;BME280;8384;47.996;7.786;2023-01-31T05:41:47;99937.78;;;-3.02;100.00
16544;BME280;8384;47.996;7.786;2023-01-31T05:44:13;99939.44;;;-2.91;100.00
16544;BME280;8384;47.996;7.786;2023-01-31T05:46:39;99932.28;;;-2.90;100.00
16544;BME280;8384;47.996;7.786;2023-01-31T05:49:04;99920.72;;;-2.91;100.00
16544;BME280;8384;47.996;7.786;2023-01-31T05:51:30;99873.38;;;-3.28;100.00
16544;BME280;8384;47.996;7.786;2023-01-31T05:53:55;99912.66;;;-3.19;100.00
16544;BME280;8384;47.996;7.786;2023-01-31T05:56:21;99928.38;;;-3.16;100.00
16544;BME280;8384;47.996;7.786;2023-01-31T05:58:47;99937.38;;;-3.17;100.00
16544;BME280;8384;47.996;7.786;2023-01-31T06:01:16;99947.53;;;-3.30;100.00
16544;BME280;8384;47.996;7.786;2023-01-31T06:03:41;99955.03;;;-3.34;100.00
16544;BME280;8384;47.996;7.786;2023-01-31T06:06:07;99934.34;;;-3.32;100.00
16544;BME280;8384;47.996;7.786;2023-01-31T06:08:32;99946.72;;;-3.21;100.00
16544;BME280;8384;47.996;7.786;2023-01-31T06:11:01;99963.00;;;-3.53;100.00
16544;BME280;8384;47.996;7.786;2023-01-31T06:13:26;99966.66;;;-3.74;100.00
16544;BME280;8384;47.996;7.786;2023-01-31T06:15:51;99954.81;;;-3.81;100.00
16544;BME280;8384;47.996;7.786;2023-01-31T06:18:17;99913.47;;;-3.97;100.00
16544;BME280;8384;47.996;7.786;2023-01-31T06:20:42;99958.91;;;-3.77;100.00
16544;BME280;8384;47.996;7.786;2023-01-31T06:23:07;99967.66;;;-3.65;100.00
16544;BME280;8384;47.996;7.786;2023-01-31T06:25:32;99955.41;;;-3.68;100.00
16544;BME280;8384;47.996;7.786;2023-01-31T06:27:57;99949.06;;;-3.86;100.00
16544;BME280;8384;47.996;7.786;2023-01-31T06:30:23;99987.34;;;-3.56;100.00
16544;BME280;8384;47.996;7.786;2023-01-31T06:32:48;99912.75;;;-4.09;100.00
16544;BME280;8384;47.996;7.786;2023-01-31T06:35:13;99983.09;;;-3.79;100.00
16544;BME280;8384;47.996;7.786;2023-01-31T06:37:39;99974.56;;;-3.72;100.00
16544;BME280;8384;47.996;7.786;2023-01-31T06:40:04;99978.06;;;-3.72;100.00
16544;BME280;8384;47.996;7.786;2023-01-31T06:42:30;99972.28;;;-3.67;100.00
16544;BME280;8384;47.996;7.786;2023-01-31T06:44:55;99974.56;;;-3.33;100.00
16544;BME280;8384;47.996;7.786;2023-01-31T06:47:20;99968.22;;;-3.32;100.00
16544;BME280;8384;47.996;7.786;2023-01-31T06:49:46;99973.31;;;-3.39;100.00
16544;BME280;8384;47.996;7.786;2023-01-31T06:52:11;99982.03;;;-3.47;100.00
16544;BME280;8384;47.996;7.786;2023-01-31T06:54:36;99967.38;;;-3.62;100.00
16544;BME280;8384;47.996;7.786;2023-01-31T06:57:01;99988.91;;;-3.54;100.00
16544;BME280;8384;47.996;7.786;2023-01-31T06:59:27;99929.25;;;-3.84;100.00
16544;BME280;8384;47.996;7.786;2023-01-31T07:01:52;99983.56;;;-3.54;100.00
16544;BME280;8384;47.996;7.786;2023-01-31T07:04:17;99970.72;;;-3.80;100.00
16544;BME280;8384;47.996;7.786;2023-01-31T07:06:43;99969.06;;;-3.71;100.00
16544;BME280;8384;47.996;7.786;2023-01-31T07:09:08;99988.31;;;-3.57;100.00
16544;BME280;8384;47.996;7.786;2023-01-31T07:11:33;99959.22;;;-3.60;100.00
16544;BME280;8384;47.996;7.786;2023-01-31T07:13:58;99984.13;;;-3.40;100.00
16544;BME280;8384;47.996;7.786;2023-01-31T07:16:24;99950.78;;;-3.46;100.00
16544;BME280;8384;47.996;7.786;2023-01-31T07:18:53;99984.44;;;-3.34;100.00
16544;BME280;8384;47.996;7.786;2023-01-31T07:21:21;99976.09;;;-3.40;100.00
16544;BME280;8384;47.996;7.786;2023-01-31T07:23:47;99956.00;;;-3.44;100.00
16544;BME280;8384;47.996;7.786;2023-01-31T07:26:12;99982.31;;;-3.40;100.00
16544;BME280;8384;47.996;7.786;2023-01-31T07:28:38;99973.72;;;-3.34;100.00
16544;BME280;8384;47.996;7.786;2023-01-31T07:31:07;99955.56;;;-3.40;100.00
16544;BME280;8384;47.996;7.786;2023-01-31T07:33:35;99983.44;;;-3.33;100.00
16544;BME280;8384;47.996;7.786;2023-01-31T07:36:01;99969.94;;;-3.41;100.00
16544;BME280;8384;47.996;7.786;2023-01-31T07:38:29;99975.81;;;-3.27;100.00
16544;BME280;8384;47.996;7.786;2023-01-31T07:40:58;99993.22;;;-2.74;100.00
16544;BME280;8384;47.996;7.786;2023-01-31T07:43:23;99966.28;;;-2.53;100.00
16544;BME280;8384;47.996;7.786;2023-01-31T07:45:48;100005.28;;;-2.13;100.00
16544;BME280;8384;47.996;7.786;2023-01-31T07:48:14;100012.00;;;-2.36;100.00
16544;BME280;8384;47.996;7.786;2023-01-31T07:50:39;99975.16;;;-2.62;100.00
16544;BME280;8384;47.996;7.786;2023-01-31T07:53:04;100009.13;;;-2.53;100.00
16544;BME280;8384;47.996;7.786;2023-01-31T07:55:29;99944.16;;;-2.55;100.00
16544;BME280;8384;47.996;7.786;2023-01-31T07:57:55;99976.22;;;-2.35;100.00
16544;BME280;8384;47.996;7.786;2023-01-31T08:00:20;99991.06;;;-2.13;100.00
16544;BME280;8384;47.996;7.786;2023-01-31T08:03:04;99994.06;;;-1.98;100.00
16544;BME280;8384;47.996;7.786;2023-01-31T08:05:48;99951.03;;;-2.15;100.00
16544;BME280;8384;47.996;7.786;2023-01-31T08:08:13;99994.84;;;-1.60;100.00
16544;BME280;8384;47.996;7.786;2023-01-31T08:10:39;100002.63;;;-1.39;100.00
16544;BME280;8384;47.996;7.786;2023-01-31T08:13:04;100010.34;;;-1.17;100.00
16544;BME280;8384;47.996;7.786;2023-01-31T08:15:31;100018.38;;;-1.17;99.45
16544;BME280;8384;47.996;7.786;2023-01-31T08:17:56;100023.63;;;-0.98;100.00
16544;BME280;8384;47.996;7.786;2023-01-31T08:20:21;100012.56;;;-0.95;100.00
16544;BME280;8384;47.996;7.786;2023-01-31T08:22:47;100007.56;;;-0.89;100.00
16544;BME280;8384;47.996;7.786;2023-01-31T08:25:12;100010.28;;;-0.63;100.00
16544;BME280;8384;47.996;7.786;2023-01-31T08:27:37;100021.56;;;-0.33;100.00
16544;BME280;8384;47.996;7.786;2023-01-31T08:30:03;100003.44;;;-0.31;99.69
16544;BME280;8384;47.996;7.786;2023-01-31T08:32:28;99997.56;;;0.00;98.79
16544;BME280;8384;47.996;7.786;2023-01-31T08:34:54;100005.75;;;0.41;97.34
16544;BME280;8384;47.996;7.786;2023-01-31T08:37:19;99987.31;;;0.04;96.29
16544;BME280;8384;47.996;7.786;2023-01-31T08:39:44;100001.34;;;0.32;97.28
16544;BME280;8384;47.996;7.786;2023-01-31T08:42:09;100005.50;;;0.78;95.34
16544;BME280;8384;47.996;7.786;2023-01-31T08:44:35;100011.19;;;0.83;92.91
16544;BME280;8384;47.996;7.786;2023-01-31T08:47:02;99983.13;;;0.85;92.34
16544;BME280;8384;47.996;7.786;2023-01-31T08:49:27;100015.75;;;0.99;90.81
16544;BME280;8384;47.996;7.786;2023-01-31T08:51:52;99992.88;;;0.78;91.27
16544;BME280;8384;47.996;7.786;2023-01-31T08:54:18;100025.19;;;0.86;91.48
16544;BME280;8384;47.996;7.786;2023-01-31T08:56:43;100020.78;;;0.61;92.38
16544;BME280;8384;47.996;7.786;2023-01-31T08:59:09;100009.28;;;0.42;93.02
16544;BME280;8384;47.996;7.786;2023-01-31T09:01:35;100022.41;;;0.45;94.14
16544;BME280;8384;47.996;7.786;2023-01-31T09:04:01;100005.91;;;0.40;95.04
16544;BME280;8384;47.996;7.786;2023-01-31T09:06:26;100017.66;;;0.31;96.86
16544;BME280;8384;47.996;7.786;2023-01-31T09:08:52;100027.69;;;0.12;98.32
16544;BME280;8384;47.996;7.786;2023-01-31T09:11:18;100010.53;;;0.13;99.95
16544;BME280;8384;47.996;7.786;2023-01-31T09:13:46;100021.00;;;0.24;100.00
16544;BME280;8384;47.996;7.786;2023-01-31T09:16:13;99997.31;;;0.36;100.00
16544;BME280;8384;47.996;7.786;2023-01-31T09:18:39;100020.38;;;0.39;100.00
16544;BME280;8384;47.996;7.786;2023-01-31T09:21:11;100025.81;;;0.55;99.65
16544;BME280;8384;47.996;7.786;2023-01-31T09:23:37;100038.44;;;0.63;100.00
16544;BME280;8384;47.996;7.786;2023-01-31T09:26:03;100006.47;;;0.60;99.88
16544;BME280;8384;47.996;7.786;2023-01-31T09:28:28;99996.94;;;0.91;98.77
16544;BME280;8384;47.996;7.786;2023-01-31T09:30:54;100013.78;;;1.17;98.06
16544;BME280;8384;47.996;7.786;2023-01-31T09:33:20;100013.41;;;1.37;97.06
16544;BME280;8384;47.996;7.786;2023-01-31T09:36:07;100015.53;;;1.67;95.54
16544;BME280;8384;47.996;7.786;2023-01-31T09:38:33;99999.59;;;2.05;93.16
16544;BME280;8384;47.996;7.786;2023-01-31T09:41:02;99986.56;;;1.60;92.98
16544;BME280;8384;47.996;7.786;2023-01-31T09:43:32;99988.50;;;1.35;94.98
16544;BME280;8384;47.996;7.786;2023-01-31T09:46:01;99970.31;;;1.20;96.17
16544;BME280;8384;47.996;7.786;2023-01-31T09:48:31;99986.94;;;1.57;96.03
16544;BME280;8384;47.996;7.786;2023-01-31T09:50:58;99975.97;;;1.67;94.42
16544;BME280;8384;47.996;7.786;2023-01-31T09:53:29;99968.19;;;1.72;94.69
16544;BME280;8384;47.996;7.786;2023-01-31T10:01:51;100009.06;;;2.01;91.62
16544;BME280;8384;47.996;7.786;2023-01-31T10:09:45;99988.84;;;1.88;91.14
16544;BME280;8384;47.996;7.786;2023-01-31T10:12:17;99996.44;;;1.93;90.84
16544;BME280;8384;47.996;7.786;2023-01-31T10:14:46;99988.84;;;1.88;90.32
16544;BME280;8384;47.996;7.786;2023-01-31T10:19:59;100017.31;;;2.39;89.14
16544;BME280;8384;47.996;7.786;2023-01-31T10:22:34;100001.41;;;2.13;88.96
16544;BME280;8384;47.996;7.786;2023-01-31T10:27:50;100021.75;;;2.32;88.31
16544;BME280;8384;47.996;7.786;2023-01-31T10:30:24;100031.72;;;2.63;87.05
16544;BME280;8384;47.996;7.786;2023-01-31T10:32:56;100023.69;;;2.78;85.08
16544;BME280;8384;47.996;7.786;2023-01-31T10:35:39;100015.50;;;2.63;86.32
16544;BME280;8384;47.996;7.786;2023-01-31T10:38:18;100024.47;;;2.55;85.65
16544;BME280;8384;47.996;7.786;2023-01-31T10:40:48;100005.00;;;2.45;85.95
16544;BME280;8384;47.996;7.786;2023-01-31T10:43:20;99966.00;;;2.47;85.19
16544;BME280;8384;47.996;7.786;2023-01-31T10:45:46;99990.41;;;2.54;84.71
16544;BME280;8384;47.996;7.786;2023-01-31T10:48:18;99992.59;;;2.82;84.42
16544;BME280;8384;47.996;7.786;2023-01-31T10:53:54;99976.31;;;3.13;81.91
16544;BME280;8384;47.996;7.786;2023-01-31T10:58:50;99973.06;;;3.18;78.51
16544;BME280;8384;47.996;7.786;2023-01-31T11:01:16;99998.91;;;2.97;78.90
16544;BME280;8384;47.996;7.786;2023-01-31T11:03:49;99949.28;;;2.98;77.46
16544;BME280;8384;47.996;7.786;2023-01-31T11:06:15;100026.09;;;3.57;75.27
16544;BME280;8384;47.996;7.786;2023-01-31T11:08:56;100020.78;;;3.64;74.84
16544;BME280;8384;47.996;7.786;2023-01-31T11:11:24;100022.94;;;3.69;74.16
16544;BME280;8384;47.996;7.786;2023-01-31T11:14:01;99975.28;;;3.98;72.26
16544;BME280;8384;47.996;7.786;2023-01-31T11:16:29;100011.47;;;3.97;72.72
16544;BME280;8384;47.996;7.786;2023-01-31T11:18:56;99993.09;;;4.07;72.70
16544;BME280;8384;47.996;7.786;2023-01-31T11:21:24;100012.50;;;4.11;73.17
16544;BME280;8384;47.996;7.786;2023-01-31T11:23:51;100013.25;;;3.89;73.40
16544;BME280;8384;47.996;7.786;2023-01-31T11:26:31;100004.94;;;3.91;72.93
16544;BME280;8384;47.996;7.786;2023-01-31T11:28:57;100006.72;;;3.84;72.92
16544;BME280;8384;47.996;7.786;2023-01-31T11:31:29;100018.00;;;4.02;72.78
16544;BME280;8384;47.996;7.786;2023-01-31T11:34:01;100009.34;;;4.59;71.27
16544;BME280;8384;47.996;7.786;2023-01-31T11:36:31;100005.59;;;4.23;71.23
16544;BME280;8384;47.996;7.786;2023-01-31T11:38:58;99995.13;;;4.20;71.03
16544;BME280;8384;47.996;7.786;2023-01-31T11:41:33;99973.38;;;4.13;71.42
16544;BME280;8384;47.996;7.786;2023-01-31T11:44:16;100008.06;;;4.76;70.24
16544;BME280;8384;47.996;7.786;2023-01-31T11:47:03;99969.59;;;4.44;68.80
16544;BME280;8384;47.996;7.786;2023-01-31T11:49:39;99959.44;;;4.31;70.58
16544;BME280;8384;47.996;7.786;2023-01-31T11:52:13;99974.69;;;4.54;69.58
16544;BME280;8384;47.996;7.786;2023-01-31T11:54:42;99965.50;;;4.70;69.26
16544;BME280;8384;47.996;7.786;2023-01-31T11:57:15;99958.16;;;4.86;67.71
16544;BME280;8384;47.996;7.786;2023-01-31T11:59:41;100000.38;;;4.58;69.12
16544;BME280;8384;47.996;7.786;2023-01-31T12:02:23;99975.16;;;4.36;70.62
16544;BME280;8384;47.996;7.786;2023-01-31T12:04:50;99947.13;;;4.65;69.12
16544;BME280;8384;47.996;7.786;2023-01-31T12:07:27;99924.03;;;4.91;67.57
16544;BME280;8384;47.996;7.786;2023-01-31T12:09:55;99940.97;;;5.00;66.86
16544;BME280;8384;47.996;7.786;2023-01-31T12:12:29;99925.47;;;4.65;68.04
16544;BME280;8384;47.996;7.786;2023-01-31T12:15:02;99922.69;;;4.80;69.21
16544;BME280;8384;47.996;7.786;2023-01-31T12:17:30;99903.78;;;4.65;68.91
16544;BME280;8384;47.996;7.786;2023-01-31T12:23:01;99912.09;;;4.64;68.92
16544;BME280;8384;47.996;7.786;2023-01-31T12:25:55;99906.81;;;4.34;70.19
16544;BME280;8384;47.996;7.786;2023-01-31T12:28:50;99899.41;;;4.43;70.70
16544;BME280;8384;47.996;7.786;2023-01-31T12:31:35;99904.75;;;4.79;69.90
16544;BME280;8384;47.996;7.786;2023-01-31T12:34:30;99864.63;;;4.03;69.67
16544;BME280;8384;47.996;7.786;2023-01-31T12:39:51;99881.41;;;3.98;70.47
16544;BME280;8384;47.996;7.786;2023-01-31T12:42:43;99888.38;;;4.44;70.23
16544;BME280;8384;47.996;7.786;2023-01-31T12:51:03;99877.56;;;4.94;68.16
16544;BME280;8384;47.996;7.786;2023-01-31T12:53:49;99886.28;;;5.18;65.95
16544;BME280;8384;47.996;7.786;2023-01-31T12:56:50;99866.91;;;5.15;67.20
16544;BME280;8384;47.996;7.786;2023-01-31T12:59:28;99885.00;;;5.14;67.43
16544;BME280;8384;47.996;7.786;2023-01-31T13:07:09;99833.41;;;4.72;67.89
16544;BME280;8384;47.996;7.786;2023-01-31T13:09:36;99845.19;;;4.58;68.95
16544;BME280;8384;47.996;7.786;2023-01-31T13:12:10;99865.88;;;4.94;68.79
16544;BME280;8384;47.996;7.786;2023-01-31T13:14:42;99857.75;;;4.94;67.16
16544;BME280;8384;47.996;7.786;2023-01-31T13:17:12;99849.63;;;4.94;67.07
16544;BME280;8384;47.996;7.786;2023-01-31T13:19:45;99851.38;;;5.02;66.63
16544;BME280;8384;47.996;7.786;2023-01-31T13:22:18;99863.09;;;4.80;65.97
16544;BME280;8384;47.996;7.786;2023-01-31T13:24:47;99881.03;;;4.82;66.75
16544;BME280;8384;47.996;7.786;2023-01-31T13:27:26;99862.50;;;4.85;66.33
16544;BME280;8384;47.996;7.786;2023-01-31T13:30:00;99862.31;;;4.87;65.74
16544;BME280;8384;47.996;7.786;2023-01-31T13:32:33;99872.41;;;5.00;65.67
16544;BME280;8384;47.996;7.786;2023-01-31T13:35:25;99867.03;;;5.06;64.71
16544;BME280;8384;47.996;7.786;2023-01-31T13:38:05;99842.59;;;5.00;64.36
16544;BME280;8384;47.996;7.786;2023-01-31T13:40:40;99869.16;;;5.11;64.26
16544;BME280;8384;47.996;7.786;2023-01-31T13:43:13;99847.75;;;5.23;63.74
16544;BME280;8384;47.996;7.786;2023-01-31T13:45:53;99854.88;;;5.31;63.31
16544;BME280;8384;47.996;7.786;2023-01-31T13:48:24;99851.78;;;4.99;63.71
16544;BME280;8384;47.996;7.786;2023-01-31T13:50:53;99850.44;;;5.23;64.46
16544;BME280;8384;47.996;7.786;2023-01-31T13:53:30;99845.81;;;5.17;64.35
16544;BME280;8384;47.996;7.786;2023-01-31T13:55:57;99814.81;;;5.26;63.63
16544;BME280;8384;47.996;7.786;2023-01-31T13:58:31;99843.09;;;5.52;63.13
16544;BME280;8384;47.996;7.786;2023-01-31T14:01:03;99836.81;;;5.45;64.26
16544;BME280;8384;47.996;7.786;2023-01-31T14:03:29;99827.94;;;5.64;63.46
16544;BME280;8384;47.996;7.786;2023-01-31T14:05:57;99823.97;;;5.18;64.81
16544;BME280;8384;47.996;7.786;2023-01-31T14:13:41;99827.28;;;5.55;63.88
16544;BME280;8384;47.996;7.786;2023-01-31T14:22:13;99797.13;;;5.30;64.46
16544;BME280;8384;47.996;7.786;2023-01-31T14:27:17;99814.84;;;5.33;65.10
16544;BME280;8384;47.996;7.786;2023-01-31T14:29:44;99807.88;;;5.17;65.48
16544;BME280;8384;47.996;7.786;2023-01-31T14:32:16;99778.59;;;4.99;66.37
16544;BME280;8384;47.996;7.786;2023-01-31T14:34:49;99801.50;;;4.96;67.58
16544;BME280;8384;47.996;7.786;2023-01-31T14:45:32;99782.91;;;4.86;67.95
16544;BME280;8384;47.996;7.786;2023-01-31T14:51:36;99789.91;;;4.74;68.33
16544;BME280;8384;47.996;7.786;2023-01-31T14:59:55;99799.16;;;4.58;69.65
16544;BME280;8384;47.996;7.786;2023-01-31T15:05:00;99793.34;;;4.89;69.80
16544;BME280;8384;47.996;7.786;2023-01-31T15:07:26;99794.09;;;4.76;70.06
16544;BME280;8384;47.996;7.786;2023-01-31T15:09:52;99767.69;;;4.57;70.36